Time;durP1;ratioP1;P1;durP2;ratioP2;P2;SDS_P1;SDS_P2;PMS_P1;PMS_P2;Temp;Humidity;BMP_temperature;BMP_pressure;BME280_temperature;BME280_humidity;BME280_pressure;Samples;Min_cycle;Max_cycle;Signal;HPM_P1;HPM_P2
2022/01/01 00:00:15;;;;;;;4.20;0.80;;;27.40;99.90;;;;;;5010443;28;20229;-83
2022/01/01 00:02:51;;;;;;;5.38;1.00;;;27.40;99.90;;;;;;5013569;28;20204;-84
2022/01/01 00:05:24;;;;;;;3.35;1.00;;;27.40;99.90;;;;;;5014362;28;20199;-84
2022/01/01 00:07:55;;;;;;;4.22;0.90;;;27.50;99.90;;;;;;5014289;28;23676;-83
2022/01/01 00:10:25;;;;;;;4.72;0.80;;;27.40;99.90;;;;;;5012525;28;20995;-84
2022/01/01 00:12:59;;;;;;;4.32;1.10;;;27.40;99.90;;;;;;5012348;28;20207;-84
2022/01/01 00:15:29;;;;;;;9.82;1.30;;;27.50;99.90;;;;;;5016331;28;20246;-84
2022/01/01 00:18:02;;;;;;;4.10;0.80;;;27.50;99.90;;;;;;5014018;28;20215;-83
2022/01/01 00:20:32;;;;;;;5.28;1.00;;;27.40;99.90;;;;;;5013434;28;20660;-84
2022/01/01 00:23:03;;;;;;;6.55;1.15;;;27.50;99.90;;;;;;5012091;28;20233;-84
2022/01/01 00:25:34;;;;;;;4.43;0.80;;;27.50;99.90;;;;;;5014112;28;20201;-83
2022/01/01 00:28:05;;;;;;;4.85;0.90;;;27.40;99.90;;;;;;5015501;28;20198;-84
2022/01/01 00:30:36;;;;;;;4.07;0.70;;;27.30;99.90;;;;;;5015251;28;20201;-83
2022/01/01 00:33:09;;;;;;;2.88;0.90;;;27.30;99.90;;;;;;5016981;28;20221;-84
2022/01/01 00:35:40;;;;;;;7.57;0.80;;;27.30;99.90;;;;;;5013245;28;20230;-85
2022/01/01 00:38:11;;;;;;;3.65;0.90;;;27.30;99.90;;;;;;5013386;28;20227;-84
2022/01/01 00:40:41;;;;;;;3.58;0.90;;;27.30;99.90;;;;;;5011186;28;20253;-84
2022/01/01 00:43:12;;;;;;;4.20;0.80;;;27.40;99.90;;;;;;5013277;28;20204;-84
2022/01/01 00:45:43;;;;;;;3.00;0.77;;;27.50;99.90;;;;;;5013406;28;20386;-83
2022/01/01 00:48:18;;;;;;;6.82;1.10;;;27.40;99.90;;;;;;5011923;28;20233;-85
2022/01/01 00:50:49;;;;;;;8.13;1.30;;;27.50;99.90;;;;;;4996004;28;20225;-84
2022/01/01 00:53:23;;;;;;;5.20;0.90;;;27.60;99.90;;;;;;5016317;28;20198;-84
2022/01/01 00:55:53;;;;;;;5.60;1.10;;;27.60;99.90;;;;;;5019987;28;20213;-84
2022/01/01 00:58:24;;;;;;;4.63;1.08;;;27.60;99.90;;;;;;5012993;28;20298;-84
2022/01/01 01:00:54;;;;;;;4.35;0.90;;;27.50;99.90;;;;;;5010163;28;20229;-82
2022/01/01 01:03:27;;;;;;;10.52;1.23;;;27.50;99.90;;;;;;5009018;28;20201;-82
2022/01/01 01:05:59;;;;;;;3.67;1.08;;;27.50;99.90;;;;;;5009731;28;20256;-82
2022/01/01 01:08:30;;;;;;;5.47;1.10;;;27.50;99.90;;;;;;5010457;28;20891;-83
2022/01/01 01:11:01;;;;;;;4.60;1.10;;;27.50;99.90;;;;;;5007435;28;20666;-83
2022/01/01 01:13:33;;;;;;;5.13;1.00;;;27.40;99.90;;;;;;5006476;28;20303;-82
2022/01/01 01:16:03;;;;;;;5.53;1.05;;;27.40;99.90;;;;;;5006204;28;20226;-82
2022/01/01 01:18:36;;;;;;;3.63;0.80;;;27.50;99.90;;;;;;5008204;28;20225;-82
2022/01/01 01:21:07;;;;;;;5.20;1.20;;;27.50;99.90;;;;;;5005562;28;20253;-82
2022/01/01 01:23:40;;;;;;;5.28;1.10;;;27.60;99.90;;;;;;5004783;28;20208;-82
2022/01/01 01:26:10;;;;;;;3.25;0.63;;;27.70;99.90;;;;;;5012384;28;20198;-82
2022/01/01 01:28:47;;;;;;;5.78;1.10;;;27.80;99.90;;;;;;5007825;28;20336;-83
2022/01/01 01:31:18;;;;;;;6.85;0.90;;;27.90;99.90;;;;;;5006311;28;20205;-81
2022/01/01 01:33:51;;;;;;;4.20;1.20;;;27.80;99.90;;;;;;5010287;28;20228;-83
2022/01/01 01:36:21;;;;;;;7.82;1.42;;;27.80;99.90;;;;;;5013871;28;20221;-84
2022/01/01 01:38:52;;;;;;;5.90;1.10;;;27.80;99.90;;;;;;5017539;28;20204;-85
2022/01/01 01:41:24;;;;;;;6.85;1.30;;;27.80;99.90;;;;;;5017601;28;20225;-85
2022/01/01 01:43:56;;;;;;;5.97;1.00;;;27.90;99.90;;;;;;4996113;28;20194;-80
2022/01/01 01:46:27;;;;;;;3.40;0.80;;;27.90;99.90;;;;;;5013974;28;20311;-81
2022/01/01 01:49:00;;;;;;;4.00;0.65;;;27.90;99.90;;;;;;5006893;28;20320;-81
2022/01/01 01:51:31;;;;;;;5.78;1.02;;;27.80;99.90;;;;;;5012378;28;20197;-80
2022/01/01 01:54:01;;;;;;;6.63;1.33;;;27.80;99.90;;;;;;5012023;28;20216;-80
2022/01/01 01:56:32;;;;;;;5.65;1.17;;;27.90;99.90;;;;;;5011854;28;20684;-82
2022/01/01 01:59:03;;;;;;;4.18;0.88;;;27.90;99.90;;;;;;5010430;28;20748;-81
2022/01/01 02:01:34;;;;;;;3.47;1.00;;;28.00;99.90;;;;;;5009246;28;20229;-81
2022/01/01 02:04:07;;;;;;;7.43;1.10;;;28.00;99.90;;;;;;5011022;28;20201;-82
2022/01/01 02:06:38;;;;;;;3.63;0.80;;;28.10;99.90;;;;;;5014402;28;20205;-80
2022/01/01 02:09:13;;;;;;;4.75;0.82;;;28.20;99.90;;;;;;5011641;28;20197;-81
2022/01/01 02:11:44;;;;;;;5.80;1.02;;;28.40;99.90;;;;;;5013536;28;20308;-80
2022/01/01 02:14:33;;;;;;;3.45;0.80;;;28.40;99.90;;;;;;5009763;28;20685;-80
2022/01/01 02:17:10;;;;;;;3.88;1.00;;;28.50;99.90;;;;;;5017083;28;20206;-85
2022/01/01 02:19:59;;;;;;;4.97;1.20;;;28.50;99.90;;;;;;5013966;28;20194;-80
2022/01/01 02:22:45;;;;;;;3.63;0.90;;;28.60;99.90;;;;;;5008127;28;20276;-81
2022/01/01 02:25:16;;;;;;;4.95;0.98;;;28.50;99.90;;;;;;5013438;28;20288;-81
2022/01/01 02:27:46;;;;;;;4.82;1.00;;;28.50;99.90;;;;;;5009651;28;20202;-80
2022/01/01 02:30:18;;;;;;;5.25;0.85;;;28.50;99.90;;;;;;5006859;28;20562;-81
2022/01/01 02:32:49;;;;;;;4.07;0.90;;;28.40;99.90;;;;;;5008982;28;20217;-80
2022/01/01 02:35:24;;;;;;;5.65;1.00;;;28.50;99.90;;;;;;5010640;28;20318;-82
2022/01/01 02:37:56;;;;;;;7.22;1.00;;;28.50;99.90;;;;;;5012845;28;20205;-80
2022/01/01 02:40:27;;;;;;;4.28;0.70;;;28.50;99.90;;;;;;5011850;28;20201;-82
2022/01/01 02:42:58;;;;;;;5.53;1.00;;;28.50;99.90;;;;;;5011255;28;20193;-80
2022/01/01 02:45:29;;;;;;;3.97;0.90;;;28.60;99.90;;;;;;5013836;28;20224;-81
2022/01/01 02:47:59;;;;;;;4.22;0.70;;;28.60;99.90;;;;;;5012061;28;20719;-80
2022/01/01 02:50:30;;;;;;;4.63;0.80;;;28.60;99.90;;;;;;5010719;28;20201;-80
2022/01/01 02:53:03;;;;;;;3.47;0.90;;;28.70;99.90;;;;;;5009052;28;20230;-80
2022/01/01 02:55:33;;;;;;;4.85;1.00;;;28.70;99.90;;;;;;5011555;28;20217;-81
2022/01/01 02:58:06;;;;;;;3.65;0.80;;;28.70;99.90;;;;;;5014364;28;21020;-80
2022/01/01 03:00:37;;;;;;;5.47;1.10;;;28.70;99.90;;;;;;5011429;28;20206;-82
2022/01/01 03:03:08;;;;;;;5.13;1.00;;;28.70;99.90;;;;;;5014900;28;20391;-81
2022/01/01 03:05:38;;;;;;;5.82;0.80;;;28.70;99.90;;;;;;5010006;28;20206;-81
2022/01/01 03:08:11;;;;;;;7.93;1.35;;;28.60;99.90;;;;;;5009272;28;20627;-81
2022/01/01 03:10:43;;;;;;;3.40;0.80;;;28.60;99.90;;;;;;5011253;28;20200;-81
2022/01/01 03:13:13;;;;;;;4.75;1.02;;;28.50;99.90;;;;;;5010166;28;20217;-81
2022/01/01 03:15:44;;;;;;;5.70;1.00;;;28.50;99.90;;;;;;5010119;28;20229;-81
2022/01/01 03:18:16;;;;;;;5.88;1.08;;;28.60;99.90;;;;;;5008079;28;20226;-80
2022/01/01 03:20:47;;;;;;;4.88;1.02;;;28.70;99.90;;;;;;5017850;28;20238;-85
2022/01/01 03:23:19;;;;;;;3.83;0.82;;;28.90;99.90;;;;;;5017997;28;20216;-85
2022/01/01 03:25:50;;;;;;;5.05;1.02;;;29.00;99.90;;;;;;5018225;28;20198;-84
2022/01/01 03:28:20;;;;;;;2.97;1.05;;;29.00;99.90;;;;;;5016499;28;20275;-83
2022/01/01 03:30:51;;;;;;;4.40;1.00;;;29.00;99.90;;;;;;5011476;28;20779;-80
2022/01/01 03:33:22;;;;;;;3.75;1.00;;;29.00;99.90;;;;;;5007987;28;20206;-80
2022/01/01 03:35:53;;;;;;;3.90;1.08;;;29.00;99.90;;;;;;5008208;28;20217;-79
2022/01/01 03:38:25;;;;;;;3.00;0.80;;;28.90;99.90;;;;;;5010789;28;20231;-79
2022/01/01 03:40:56;;;;;;;4.55;0.90;;;28.80;99.90;;;;;;5007106;28;20226;-80
2022/01/01 03:43:26;;;;;;;4.90;0.98;;;28.70;99.90;;;;;;5009392;28;20691;-80
2022/01/01 03:45:58;;;;;;;2.83;1.08;;;28.70;99.90;;;;;;5009979;28;20205;-80
2022/01/01 03:48:28;;;;;;;4.50;1.00;;;28.60;99.90;;;;;;5010397;28;20347;-79
2022/01/01 03:50:59;;;;;;;6.18;1.40;;;28.50;99.90;;;;;;5009302;28;20234;-80
2022/01/01 03:53:32;;;;;;;5.18;0.95;;;28.50;99.90;;;;;;5007524;28;20221;-80
2022/01/01 03:56:03;;;;;;;3.63;0.90;;;28.50;99.90;;;;;;5008192;28;20232;-80
2022/01/01 03:58:34;;;;;;;3.58;0.82;;;28.50;99.90;;;;;;5008641;28;20625;-80
2022/01/01 04:01:05;;;;;;;4.60;1.00;;;28.40;99.90;;;;;;5008342;28;20263;-81
2022/01/01 04:03:35;;;;;;;6.60;1.05;;;28.40;99.90;;;;;;5007660;28;21166;-80
2022/01/01 04:06:06;;;;;;;2.97;0.70;;;28.30;99.90;;;;;;5008947;28;20221;-80
2022/01/01 04:08:38;;;;;;;6.05;0.80;;;28.30;99.90;;;;;;5010964;28;20308;-84
2022/01/01 04:11:09;;;;;;;5.18;0.90;;;28.20;99.90;;;;;;5014532;28;21990;-83
2022/01/01 04:13:40;;;;;;;8.43;1.20;;;28.10;99.90;;;;;;5012974;28;20314;-79
2022/01/01 04:16:11;;;;;;;3.17;0.82;;;28.10;99.90;;;;;;5009107;28;20264;-80
2022/01/01 04:18:42;;;;;;;5.93;1.10;;;28.10;99.90;;;;;;5011030;28;20295;-79
2022/01/01 04:21:13;;;;;;;6.38;1.13;;;28.10;99.90;;;;;;5013046;28;20259;-80
2022/01/01 04:23:47;;;;;;;6.50;1.20;;;28.10;99.90;;;;;;5009946;28;20201;-79
2022/01/01 04:26:17;;;;;;;7.32;1.00;;;28.10;99.90;;;;;;5012397;28;20230;-79
2022/01/01 04:28:48;;;;;;;3.10;0.82;;;28.20;99.90;;;;;;5009034;28;20730;-79
2022/01/01 04:31:19;;;;;;;5.72;1.15;;;28.30;99.90;;;;;;5008168;28;20290;-79
2022/01/01 04:33:50;;;;;;;5.18;1.00;;;28.30;99.90;;;;;;5009940;28;20738;-80
2022/01/01 04:36:21;;;;;;;3.53;1.02;;;28.30;99.90;;;;;;5009778;28;20251;-79
2022/01/01 04:38:53;;;;;;;5.45;1.20;;;28.50;99.90;;;;;;5008818;28;20269;-79
2022/01/01 04:41:24;;;;;;;6.57;1.30;;;28.40;99.90;;;;;;5008270;28;20225;-80
2022/01/01 04:44:01;;;;;;;6.38;1.35;;;28.50;99.90;;;;;;5008410;28;20201;-80
2022/01/01 04:46:32;;;;;;;5.30;1.15;;;28.60;99.90;;;;;;5008226;28;20200;-80
2022/01/01 04:49:02;;;;;;;5.85;1.25;;;28.60;99.90;;;;;;5010510;28;20233;-80
2022/01/01 04:51:33;;;;;;;4.13;1.10;;;28.80;99.90;;;;;;5007689;28;20202;-81
2022/01/01 04:54:14;;;;;;;4.45;0.90;;;28.80;99.90;;;;;;5007752;28;20748;-79
2022/01/01 04:56:47;;;;;;;5.55;1.30;;;29.00;99.90;;;;;;5007388;28;20211;-81
2022/01/01 04:59:18;;;;;;;4.40;1.08;;;29.00;99.90;;;;;;5005424;28;20197;-80
2022/01/01 05:01:49;;;;;;;2.83;0.80;;;29.10;99.90;;;;;;5010374;28;20282;-81
2022/01/01 05:04:19;;;;;;;5.75;0.85;;;29.20;99.90;;;;;;5004696;28;20685;-81
2022/01/01 05:06:51;;;;;;;5.28;0.80;;;29.30;99.90;;;;;;5006823;28;20608;-80
2022/01/01 05:09:24;;;;;;;5.60;1.00;;;29.50;99.90;;;;;;5012217;28;20251;-80
2022/01/01 05:11:55;;;;;;;4.25;1.10;;;29.60;99.90;;;;;;5003791;28;21982;-80
2022/01/01 05:14:26;;;;;;;5.30;1.02;;;29.60;99.90;;;;;;5005119;28;20213;-79
2022/01/01 05:16:56;;;;;;;6.53;1.00;;;29.80;99.90;;;;;;5005352;28;20206;-81
2022/01/01 05:19:27;;;;;;;6.28;1.30;;;30.00;99.90;;;;;;5007065;28;20196;-80
2022/01/01 05:21:58;;;;;;;4.25;1.00;;;30.10;99.90;;;;;;5004921;28;20338;-80
2022/01/01 05:24:30;;;;;;;5.72;1.10;;;30.10;99.90;;;;;;5005162;28;20236;-79
2022/01/01 05:27:01;;;;;;;9.18;1.27;;;29.90;99.90;;;;;;5004210;28;20277;-81
2022/01/01 05:29:32;;;;;;;4.38;1.00;;;29.80;99.90;;;;;;5003821;28;20276;-80
2022/01/01 05:32:02;;;;;;;4.63;1.17;;;30.00;99.90;;;;;;5011517;28;20731;-84
2022/01/01 05:34:33;;;;;;;6.60;1.50;;;30.00;99.90;;;;;;5009723;28;20328;-84
2022/01/01 05:37:04;;;;;;;5.10;1.10;;;30.20;99.90;;;;;;5012506;28;20217;-84
2022/01/01 05:39:37;;;;;;;6.38;1.20;;;30.40;99.90;;;;;;5010059;28;22192;-83
2022/01/01 05:42:08;;;;;;;4.28;0.93;;;30.50;99.90;;;;;;5002935;28;20236;-80
2022/01/01 05:44:39;;;;;;;6.00;1.25;;;30.30;99.90;;;;;;5005697;28;20232;-80
2022/01/01 05:47:10;;;;;;;4.13;1.02;;;30.00;99.90;;;;;;5001944;28;20786;-80
2022/01/01 05:49:40;;;;;;;7.78;1.38;;;30.10;99.90;;;;;;5003128;28;20225;-78
2022/01/01 05:52:11;;;;;;;4.35;1.27;;;29.90;99.90;;;;;;5005359;28;20322;-79
2022/01/01 05:54:43;;;;;;;5.32;1.20;;;29.70;99.90;;;;;;5004993;28;20217;-81
2022/01/01 05:57:14;;;;;;;6.88;1.33;;;29.50;99.90;;;;;;5002420;28;20257;-81
2022/01/01 05:59:45;;;;;;;8.27;1.58;;;29.30;99.90;;;;;;5003354;28;20221;-80
2022/01/01 06:02:16;;;;;;;7.35;1.50;;;29.20;99.90;;;;;;5003259;28;20360;-80
2022/01/01 06:04:46;;;;;;;6.18;1.10;;;29.00;99.90;;;;;;5008526;28;20267;-83
2022/01/01 06:07:17;;;;;;;4.78;1.02;;;28.80;99.90;;;;;;5009247;28;20201;-82
2022/01/01 06:09:50;;;;;;;3.63;1.30;;;28.60;99.90;;;;;;5007588;28;20209;-82
2022/01/01 06:12:21;;;;;;;5.20;1.33;;;28.50;99.90;;;;;;5007859;28;20221;-82
2022/01/01 06:14:51;;;;;;;5.93;1.38;;;28.40;99.90;;;;;;5008315;28;20296;-82
2022/01/01 06:17:22;;;;;;;7.68;1.80;;;28.40;99.90;;;;;;5012156;28;20688;-82
2022/01/01 06:19:53;;;;;;;6.10;1.50;;;28.20;99.90;;;;;;5007013;28;20276;-83
2022/01/01 06:22:23;;;;;;;5.38;1.35;;;28.10;99.90;;;;;;5009527;28;20229;-82
2022/01/01 06:24:56;;;;;;;7.25;1.50;;;28.10;99.90;;;;;;5007907;28;20208;-82
2022/01/01 06:27:27;;;;;;;7.18;1.40;;;28.00;99.90;;;;;;5006570;28;20221;-82
2022/01/01 06:29:57;;;;;;;7.72;1.70;;;27.90;99.90;;;;;;5010177;28;20210;-82
2022/01/01 06:32:28;;;;;;;7.10;1.10;;;27.80;99.90;;;;;;5008873;28;20201;-82
2022/01/01 06:34:59;;;;;;;6.85;1.30;;;27.70;99.90;;;;;;5006492;28;20327;-83
2022/01/01 06:37:29;;;;;;;5.35;1.30;;;27.70;99.90;;;;;;5012710;28;20314;-82
2022/01/01 06:40:02;;;;;;;6.78;1.52;;;27.50;99.90;;;;;;5009471;28;20319;-83
2022/01/01 06:42:33;;;;;;;4.68;1.30;;;27.40;99.90;;;;;;5012370;28;20637;-82
2022/01/01 06:45:03;;;;;;;9.20;1.80;;;27.40;99.90;;;;;;5014059;28;20197;-82
2022/01/01 06:47:34;;;;;;;8.05;1.80;;;27.30;99.90;;;;;;5012313;28;20517;-83
2022/01/01 06:50:05;;;;;;;7.97;1.52;;;27.20;99.90;;;;;;5015942;28;20205;-83
2022/01/01 06:52:35;;;;;;;6.60;1.70;;;27.10;99.90;;;;;;5012430;28;22073;-83
2022/01/01 06:55:08;;;;;;;7.40;1.67;;;27.00;99.90;;;;;;5011912;28;20229;-82
2022/01/01 06:57:39;;;;;;;5.00;1.27;;;27.00;99.90;;;;;;5032442;28;20193;-82
2022/01/01 07:00:11;;;;;;;9.45;1.52;;;26.90;99.90;;;;;;5032348;28;20255;-82
2022/01/01 07:02:42;;;;;;;4.68;1.27;;;26.80;99.90;;;;;;5031373;28;20228;-83
2022/01/01 07:05:14;;;;;;;7.07;1.40;;;26.90;99.90;;;;;;5018053;28;20221;-82
2022/01/01 07:07:45;;;;;;;7.85;1.70;;;26.80;99.90;;;;;;5034381;28;20201;-82
2022/01/01 07:10:18;;;;;;;8.93;1.50;;;26.80;99.90;;;;;;5019415;28;20217;-82
2022/01/01 07:12:49;;;;;;;7.35;1.88;;;26.80;99.90;;;;;;5013178;28;20884;-81
2022/01/01 07:15:20;;;;;;;5.95;1.45;;;26.80;99.90;;;;;;5014467;28;20241;-81
2022/01/01 07:17:50;;;;;;;7.10;1.27;;;26.70;99.90;;;;;;5012530;28;20284;-82
2022/01/01 07:20:23;;;;;;;7.70;1.50;;;26.60;99.90;;;;;;5011320;28;20259;-81
2022/01/01 07:22:54;;;;;;;4.60;1.33;;;26.60;99.90;;;;;;5012119;28;20236;-82
2022/01/01 07:25:28;;;;;;;10.55;1.73;;;26.70;99.90;;;;;;5011667;28;20206;-83
2022/01/01 07:27:59;;;;;;;9.48;1.42;;;26.80;99.90;;;;;;5010679;28;22026;-83
2022/01/01 07:30:31;;;;;;;9.30;2.08;;;26.90;99.90;;;;;;5011302;28;20806;-83
2022/01/01 07:33:03;;;;;;;10.25;2.03;;;26.90;99.90;;;;;;5010106;28;20198;-83
2022/01/01 07:35:37;;;;;;;6.85;2.08;;;27.00;99.90;;;;;;5015041;28;20263;-82
2022/01/01 07:38:08;;;;;;;7.82;1.58;;;27.10;99.90;;;;;;5011973;28;20192;-81
2022/01/01 07:40:41;;;;;;;8.95;1.98;;;27.10;99.90;;;;;;5011725;28;20205;-83
2022/01/01 07:43:15;;;;;;;10.50;1.95;;;27.00;99.90;;;;;;5010838;28;20697;-82
2022/01/01 07:45:46;;;;;;;7.40;1.42;;;26.70;99.90;;;;;;5011066;28;20272;-83
2022/01/01 07:48:18;;;;;;;8.68;1.70;;;26.60;99.90;;;;;;5010407;28;20230;-82
2022/01/01 07:50:48;;;;;;;9.45;1.98;;;26.40;99.90;;;;;;5012518;28;20201;-82
2022/01/01 07:53:19;;;;;;;9.02;1.70;;;26.40;99.90;;;;;;5014939;28;20198;-83
2022/01/01 07:55:51;;;;;;;7.72;1.83;;;26.40;99.90;;;;;;5015611;28;20206;-83
2022/01/01 07:58:22;;;;;;;10.55;2.28;;;26.30;99.90;;;;;;5013469;28;20193;-81
2022/01/01 08:00:53;;;;;;;10.95;3.28;;;26.20;99.90;;;;;;5012810;28;20205;-83
2022/01/01 08:03:24;;;;;;;11.88;2.17;;;26.10;99.90;;;;;;5011874;28;20236;-83
2022/01/01 08:05:54;;;;;;;8.27;1.70;;;26.10;99.90;;;;;;5012943;28;20251;-83
2022/01/01 08:08:25;;;;;;;11.45;2.10;;;26.10;99.90;;;;;;5027310;28;20205;-83
2022/01/01 08:10:59;;;;;;;8.18;1.80;;;26.10;99.90;;;;;;5016776;28;20196;-83
2022/01/01 08:13:35;;;;;;;9.93;1.80;;;26.10;99.90;;;;;;5031148;28;20259;-83
2022/01/01 08:16:09;;;;;;;8.43;1.45;;;26.30;99.90;;;;;;5030783;28;20225;-82
2022/01/01 08:18:39;;;;;;;7.97;1.73;;;26.40;99.90;;;;;;5030284;28;20209;-82
2022/01/01 08:21:10;;;;;;;8.90;1.83;;;26.40;99.90;;;;;;5025221;28;20722;-83
2022/01/01 08:23:41;;;;;;;7.28;1.70;;;26.50;99.90;;;;;;5031011;28;20712;-83
2022/01/01 08:26:13;;;;;;;7.85;1.80;;;26.50;99.90;;;;;;5030814;28;20201;-82
2022/01/01 08:28:44;;;;;;;7.47;1.52;;;26.50;99.90;;;;;;5027584;28;20197;-82
2022/01/01 08:31:15;;;;;;;6.97;1.55;;;26.50;99.90;;;;;;5031112;28;20197;-82
2022/01/01 08:33:47;;;;;;;6.72;1.70;;;26.40;99.90;;;;;;5036954;28;20248;-82
2022/01/01 08:36:18;;;;;;;11.40;2.05;;;26.40;99.90;;;;;;5032183;28;20262;-83
2022/01/01 08:38:48;;;;;;;7.35;1.67;;;26.30;99.90;;;;;;5030696;28;20201;-84
2022/01/01 08:41:22;;;;;;;7.38;1.98;;;26.10;99.90;;;;;;5047734;28;20212;-83
2022/01/01 08:43:53;;;;;;;7.97;1.67;;;26.00;99.90;;;;;;5020523;28;20229;-82
2022/01/01 08:46:24;;;;;;;7.00;1.77;;;26.00;99.90;;;;;;5042852;28;20201;-83
2022/01/01 08:48:54;;;;;;;8.48;1.70;;;25.90;99.90;;;;;;5027396;28;20250;-83
2022/01/01 08:51:25;;;;;;;8.13;2.08;;;25.90;99.90;;;;;;5043922;28;20219;-84
2022/01/01 08:53:57;;;;;;;9.95;2.45;;;25.90;99.90;;;;;;5026489;28;20201;-83
2022/01/01 08:56:33;;;;;;;13.40;3.40;;;25.70;99.90;;;;;;5028269;28;20266;-83
2022/01/01 08:59:07;;;;;;;10.32;2.20;;;25.70;99.90;;;;;;5018236;28;20684;-83
2022/01/01 09:01:40;;;;;;;8.40;1.83;;;25.70;99.90;;;;;;5031762;28;20189;-83
2022/01/01 09:04:22;;;;;;;10.35;2.17;;;25.70;99.90;;;;;;5039826;28;20259;-84
2022/01/01 09:06:52;;;;;;;8.40;1.75;;;25.60;99.90;;;;;;5047322;28;20638;-81
2022/01/01 09:09:29;;;;;;;8.38;1.88;;;25.60;99.90;;;;;;5052808;28;20571;-85
2022/01/01 09:12:05;;;;;;;9.07;2.10;;;25.50;99.90;;;;;;5036989;28;20208;-83
2022/01/01 09:14:36;;;;;;;11.88;1.88;;;25.50;99.90;;;;;;5019934;28;20307;-85
2022/01/01 09:17:14;;;;;;;10.13;1.95;;;25.40;99.90;;;;;;5018349;28;20283;-87
2022/01/01 09:19:51;;;;;;;11.88;2.22;;;25.40;99.90;;;;;;5021092;28;20220;-84
2022/01/01 09:22:44;;;;;;;13.77;2.60;;;25.40;99.90;;;;;;5025833;28;20561;-83
2022/01/01 09:25:25;;;;;;;11.60;2.33;;;25.40;99.90;;;;;;5015877;28;20235;-84
2022/01/01 09:28:13;;;;;;;11.38;2.15;;;25.40;99.90;;;;;;5012797;28;20228;-80
2022/01/01 09:30:50;;;;;;;10.63;2.35;;;25.40;99.90;;;;;;5013500;28;20266;-81
2022/01/01 09:33:31;;;;;;;10.10;1.98;;;25.30;99.90;;;;;;5010731;28;21038;-79
2022/01/01 09:36:05;;;;;;;15.00;2.45;;;25.20;99.90;;;;;;5010119;28;20279;-80
2022/01/01 09:38:39;;;;;;;10.77;1.98;;;25.20;99.90;;;;;;5008721;28;20584;-80
2022/01/01 09:41:13;;;;;;;9.70;2.05;;;25.20;99.90;;;;;;5011721;28;20224;-80
2022/01/01 09:43:47;;;;;;;13.43;2.10;;;25.10;99.90;;;;;;5010707;28;20243;-80
2022/01/01 09:46:29;;;;;;;9.50;1.88;;;25.10;99.90;;;;;;5010423;28;20216;-80
2022/01/01 09:49:03;;;;;;;10.88;2.05;;;25.00;99.90;;;;;;5019952;28;20248;-80
2022/01/01 09:51:36;;;;;;;11.18;1.83;;;25.00;99.90;;;;;;5015395;28;20754;-80
2022/01/01 09:54:07;;;;;;;11.68;2.10;;;25.00;99.90;;;;;;5014736;28;20284;-80
2022/01/01 09:56:38;;;;;;;12.00;1.80;;;25.00;99.90;;;;;;5014538;28;20204;-80
2022/01/01 09:59:15;;;;;;;10.20;2.00;;;25.00;99.90;;;;;;5012079;28;20217;-80
2022/01/01 10:01:49;;;;;;;11.02;1.90;;;25.00;99.90;;;;;;5017139;28;20236;-81
2022/01/01 10:04:23;;;;;;;12.55;1.90;;;24.90;99.90;;;;;;5017763;28;20229;-81
2022/01/01 10:07:05;;;;;;;12.23;1.77;;;25.00;99.90;;;;;;5023448;28;20304;-79
2022/01/01 10:09:36;;;;;;;9.55;2.05;;;25.00;99.90;;;;;;5020537;28;20224;-80
2022/01/01 10:12:17;;;;;;;6.45;1.63;;;25.00;99.90;;;;;;5024656;28;20197;-81
2022/01/01 10:14:50;;;;;;;9.50;2.20;;;25.00;99.90;;;;;;5027801;28;20216;-80
2022/01/01 10:17:23;;;;;;;8.95;1.52;;;25.00;99.90;;;;;;5023015;28;20313;-79
2022/01/01 10:19:55;;;;;;;6.97;1.42;;;25.00;99.90;;;;;;5017990;28;20217;-80
2022/01/01 10:22:28;;;;;;;7.63;1.70;;;24.90;99.90;;;;;;5019792;28;20372;-80
2022/01/01 10:27:57;;;;;;;8.43;1.60;;;25.00;99.90;;;;;;5015027;28;20370;-80
2022/01/01 10:30:36;;;;;;;9.73;1.67;;;25.00;99.90;;;;;;5028214;28;20270;-81
2022/01/01 10:33:09;;;;;;;8.15;1.63;;;25.00;99.90;;;;;;5032467;28;20662;-80
2022/01/01 10:35:42;;;;;;;8.80;1.50;;;24.90;99.90;;;;;;5020609;28;20611;-81
2022/01/01 10:38:17;;;;;;;6.70;1.67;;;24.90;99.90;;;;;;5031635;28;20240;-80
2022/01/01 10:40:48;;;;;;;6.65;1.63;;;25.00;99.90;;;;;;5022921;28;20225;-81
2022/01/01 10:43:20;;;;;;;8.07;1.75;;;24.90;99.90;;;;;;5029746;28;20282;-80
2022/01/01 10:45:55;;;;;;;6.22;1.35;;;24.90;99.90;;;;;;5037709;28;20193;-80
2022/01/01 10:48:39;;;;;;;13.00;1.92;;;24.90;99.90;;;;;;5042191;28;20228;-80
2022/01/01 10:51:10;;;;;;;8.27;1.67;;;24.90;99.90;;;;;;5038574;28;20535;-80
2022/01/01 10:53:41;;;;;;;6.85;1.80;;;24.90;99.90;;;;;;5035807;28;20264;-80
2022/01/01 10:56:21;;;;;;;7.20;1.65;;;24.90;99.90;;;;;;5036150;28;20193;-80
2022/01/01 10:59:02;;;;;;;7.18;1.60;;;24.90;99.90;;;;;;5030673;28;20203;-80
2022/01/01 11:01:37;;;;;;;7.40;1.80;;;24.90;99.90;;;;;;5035932;28;20711;-81
2022/01/01 11:04:09;;;;;;;7.28;1.52;;;24.90;99.90;;;;;;5030245;28;20228;-80
2022/01/01 11:06:42;;;;;;;10.13;1.95;;;24.90;99.90;;;;;;5037481;28;20193;-80
2022/01/01 11:09:17;;;;;;;8.70;1.95;;;24.80;99.90;;;;;;5035560;28;20235;-80
2022/01/01 11:11:48;;;;;;;8.18;1.50;;;24.80;99.90;;;;;;5033331;28;20343;-80
2022/01/01 11:14:19;;;;;;;7.93;1.73;;;24.80;99.90;;;;;;5033280;28;20224;-80
2022/01/01 11:16:52;;;;;;;10.13;1.90;;;24.80;99.90;;;;;;5029164;28;20200;-80
2022/01/01 11:19:24;;;;;;;9.60;2.08;;;24.80;99.90;;;;;;5030689;28;20221;-80
2022/01/01 11:21:56;;;;;;;10.70;1.70;;;24.80;99.90;;;;;;5021710;28;20223;-80
2022/01/01 11:24:27;;;;;;;8.32;1.90;;;24.70;99.90;;;;;;5026573;28;20700;-80
2022/01/01 11:26:58;;;;;;;9.15;2.13;;;24.70;99.90;;;;;;5033851;28;20263;-80
2022/01/01 11:29:29;;;;;;;9.15;2.10;;;24.70;99.90;;;;;;5033786;28;20221;-80
2022/01/01 11:32:03;;;;;;;8.65;1.95;;;24.70;99.90;;;;;;5033197;28;20209;-80
2022/01/01 11:34:36;;;;;;;8.15;1.67;;;24.70;99.90;;;;;;5030912;28;20221;-80
2022/01/01 11:37:07;;;;;;;7.05;1.70;;;24.70;99.90;;;;;;5029370;28;20198;-80
2022/01/01 11:39:40;;;;;;;7.07;1.95;;;24.70;99.90;;;;;;5036965;28;20221;-80
2022/01/01 11:42:16;;;;;;;9.77;2.05;;;24.70;99.90;;;;;;5035996;28;20218;-80
2022/01/01 11:44:52;;;;;;;8.68;1.90;;;24.70;99.90;;;;;;5031647;28;20220;-80
2022/01/01 11:47:28;;;;;;;8.43;1.88;;;24.70;99.90;;;;;;5032437;28;20225;-80
2022/01/01 11:50:00;;;;;;;11.23;2.15;;;24.70;99.90;;;;;;5021891;28;20235;-80
2022/01/01 11:52:44;;;;;;;6.68;1.45;;;24.70;99.90;;;;;;5029692;28;20264;-80
2022/01/01 11:55:17;;;;;;;7.10;1.77;;;24.60;99.90;;;;;;5033137;28;20209;-80
2022/01/01 11:57:59;;;;;;;10.50;2.17;;;24.60;99.90;;;;;;5039723;28;20218;-80
2022/01/01 12:00:29;;;;;;;10.40;1.85;;;24.60;99.90;;;;;;5033419;28;20217;-80
2022/01/01 12:06:13;;;;;;;11.55;2.33;;;24.60;99.90;;;;;;5108621;27;20591;-83
2022/01/01 12:08:46;;;;;;;8.27;1.42;;;24.60;99.90;;;;;;5099605;28;20218;-80
2022/01/01 12:11:31;;;;;;;7.25;1.70;;;24.60;99.90;;;;;;5104986;28;20222;-80
2022/01/01 12:14:04;;;;;;;6.88;1.65;;;24.60;99.90;;;;;;5080051;28;20219;-80
2022/01/01 12:16:35;;;;;;;8.65;1.80;;;24.60;99.90;;;;;;5086590;28;20207;-80
2022/01/01 12:19:09;;;;;;;7.95;1.60;;;24.50;99.90;;;;;;5074103;28;20239;-80
2022/01/01 12:21:45;;;;;;;11.52;1.98;;;24.60;99.90;;;;;;5075180;28;20647;-80
2022/01/01 12:24:21;;;;;;;8.25;1.70;;;24.50;99.90;;;;;;5077246;28;20234;-80
2022/01/01 12:26:58;;;;;;;7.95;1.80;;;24.50;99.90;;;;;;5083433;28;20305;-80
2022/01/01 12:29:29;;;;;;;7.07;1.63;;;24.50;99.90;;;;;;5070916;28;20196;-79
2022/01/01 12:32:00;;;;;;;9.30;1.40;;;24.50;99.90;;;;;;5086089;28;20196;-80
2022/01/01 12:34:34;;;;;;;6.90;1.48;;;24.40;99.90;;;;;;5083716;28;20245;-80
2022/01/01 12:37:08;;;;;;;5.75;1.30;;;24.50;99.90;;;;;;5087609;28;20222;-80
2022/01/01 12:40:02;;;;;;;7.70;2.03;;;24.50;99.90;;;;;;5095631;28;20294;-80
2022/01/01 12:42:35;;;;;;;10.63;1.70;;;24.50;99.90;;;;;;5079507;28;20294;-80
2022/01/01 12:45:09;;;;;;;5.35;1.35;;;24.40;99.90;;;;;;5088266;28;20257;-80
2022/01/01 12:47:41;;;;;;;8.23;1.60;;;24.40;99.90;;;;;;5088366;28;20241;-80
2022/01/01 12:50:11;;;;;;;8.77;1.60;;;24.40;99.90;;;;;;5084489;28;20219;-80
2022/01/01 12:52:44;;;;;;;6.45;1.67;;;24.30;99.90;;;;;;5081559;28;20648;-80
2022/01/01 12:55:15;;;;;;;6.82;1.77;;;24.30;99.90;;;;;;5079660;28;20693;-80
2022/01/01 12:57:48;;;;;;;7.32;1.67;;;24.30;99.90;;;;;;5084799;28;20216;-80
2022/01/01 13:00:26;;;;;;;9.45;1.38;;;24.20;99.90;;;;;;5085708;28;20215;-80
2022/01/01 13:02:59;;;;;;;6.28;1.55;;;24.30;99.90;;;;;;5081717;28;20578;-82
2022/01/01 13:05:30;;;;;;;5.38;1.27;;;24.20;99.90;;;;;;5086029;28;20235;-80
2022/01/01 13:08:06;;;;;;;3.90;1.40;;;24.20;99.90;;;;;;5084398;28;20215;-80
2022/01/01 13:10:36;;;;;;;6.70;1.70;;;24.10;99.90;;;;;;5095061;28;20217;-82
2022/01/01 13:13:09;;;;;;;6.30;1.25;;;24.10;99.90;;;;;;5087180;28;20219;-80
2022/01/01 13:15:40;;;;;;;7.38;1.58;;;24.10;99.90;;;;;;5081341;28;20200;-79
2022/01/01 13:18:15;;;;;;;4.63;1.17;;;24.10;99.90;;;;;;5069806;28;20216;-80